Flight Track Log - Related Links

Times and Time Zones

All times are in EDT time to prevent confusion due to time zone crossing. See the AAL610 flight status page for this flight to view local times or setup timezone preferences in your user account.

Time Position Orientation Groundspeed Altitude Reporting Facility
EDT Latitude Longitude Course Direction KTS MPH feet Rate Location/Type
Mon 04:05:45 PM 37.4000 -121.9833 28° Northeast 197 227 2,300  Level Northern Cal TRACON
Mon 04:06:45 PM 37.4500 -121.9500 28° Northeast 242 278 4,200 1,500 Climbing Northern Cal TRACON
Mon 04:07:45 PM 37.4000 -121.8667 127° Southeast 293 337 5,300 1,945 Climbing Northern Cal TRACON
Mon 04:09:10 PM 37.3258 -121.7864 139° Southeast 300 345 8,900 2,466 Climbing Oakland Center
Mon 04:10:11 PM 37.2808 -121.8561 231° Southwest 300 345 11,300 2,049 Climbing Oakland Center
Mon 04:11:13 PM 37.3392 -121.9197 319° Northwest 286 329 13,100 1,317 Climbing Oakland Center
Mon 04:12:14 PM 37.4289 -121.9500 345° North 331 381 14,000 1,475 Climbing Oakland Center
Mon 04:13:15 PM 37.5322 -121.9436 North 373 429 16,100 1,902 Climbing Oakland Center
Mon 04:14:17 PM 37.6058 -121.8408 48° Northeast 399 459 17,900 1,951 Climbing Oakland Center
Mon 04:15:18 PM 37.6850 -121.6989 55° Northeast 413 475 20,100 1,951 Climbing Oakland Center
Mon 04:16:20 PM 37.7536 -121.5764 55° Northeast 426 490 21,900 1,610 Climbing Oakland Center
Mon 04:17:21 PM 37.8256 -121.4483 55° Northeast 437 503 23,400 1,525 Climbing Oakland Center
Mon 04:18:22 PM 37.8994 -121.3178 54° Northeast 453 521 25,000 1,610 Climbing Oakland Center
Mon 04:19:24 PM 37.9719 -121.1886 55° Northeast 453 521 26,700 1,463 Climbing Oakland Center
Mon 04:20:25 PM 38.0444 -121.0569 55° Northeast 458 527 28,000 1,268 Climbing Oakland Center
Mon 04:21:27 PM 38.0886 -120.9078 69° East 460 529 29,300 1,317 Climbing Oakland Center
Mon 04:22:28 PM 38.1094 -120.7464 81° East 464 534 30,700 1,415 Climbing Oakland Center
Mon 04:23:30 PM 38.1353 -120.5578 80° East 459 528 32,200 1,122 Climbing Oakland Center
Mon 04:24:31 PM 38.1561 -120.4011 80° East 454 522 33,000 393 Climbing Oakland Center
Mon 04:25:32 PM 38.1761 -120.2436 81° East 453 521 33,000  Level Oakland Center
Mon 04:26:34 PM 38.1972 -120.0867 80° East 454 522 33,000  Level Oakland Center
Mon 04:27:35 PM 38.2183 -119.9283 80° East 454 522 33,000  Level Oakland Center
Mon 04:28:37 PM 38.2381 -119.7692 81° East 456 525 33,000  Level Oakland Center
Mon 04:29:38 PM 38.2583 -119.6094 81° East 457 526 33,000  Level Oakland Center
Mon 04:30:39 PM 38.2783 -119.4411 81° East 461 531 33,000  Level Oakland Center
Mon 04:31:41 PM 38.2975 -119.2814 81° East 460 529 33,000  Level Oakland Center
Mon 04:32:42 PM 38.3175 -119.1219 81° East 458 527 33,000  Level Oakland Center
Mon 04:33:43 PM 38.3400 -118.9306 81° East 456 525 33,000  Level Oakland Center
Mon 04:34:45 PM 38.3578 -118.7689 82° East 461 531 33,000  Level Oakland Center
Mon 04:35:46 PM 38.3778 -118.6081 81° East 462 532 33,000  Level Oakland Center
Mon 04:36:47 PM 38.3956 -118.4469 82° East 461 531 33,000  Level Oakland Center
Mon 04:37:49 PM 38.4139 -118.2847 82° East 463 533 33,000  Level Oakland Center
Mon 04:38:50 PM 38.4319 -118.1239 82° East 462 532 33,000  Level Oakland Center
Mon 04:39:51 PM 38.4517 -117.9378 82° East 461 531 33,000  Level Oakland Center
Mon 04:40:53 PM 38.4694 -117.7742 82° East 463 533 33,000  Level Oakland Center
Mon 04:41:54 PM 38.4869 -117.6089 82° East 465 535 33,000  Level Oakland Center
Mon 04:42:55 PM 38.5044 -117.4450 82° East 464 534 33,000  Level Oakland Center
Mon 04:43:54 PM 38.5181 -117.2792 84° East 464 534 33,000  Level Salt Lake Center
Mon 04:44:56 PM 38.5053 -117.1114 96° East 468 539 33,000  Level Salt Lake Center
Mon 04:45:57 PM 38.4908 -116.9442 96° East 469 540 33,000  Level Salt Lake Center
Mon 04:47:01 PM 38.4775 -116.7781 96° East 468 539 33,000  Level Oakland Center
Mon 04:48:00 PM 38.4636 -116.6106 96° East 469 540 33,000  Level Salt Lake Center
Mon 04:49:02 PM 38.4492 -116.4461 96° East 467 537 33,000  Level Salt Lake Center
Mon 04:50:03 PM 38.4350 -116.2811 96° East 466 536 33,000  Level Salt Lake Center
Mon 04:51:05 PM 38.4194 -116.1181 97° East 464 534 33,000  Level Salt Lake Center
Mon 04:52:07 PM 38.4042 -115.9536 97° East 465 535 33,000  Level Salt Lake Center
Mon 04:53:08 PM 38.3886 -115.7897 97° East 466 536 33,000  Level Salt Lake Center
Mon 04:54:10 PM 38.3733 -115.6269 97° East 463 533 33,000  Level Salt Lake Center
Mon 04:55:11 PM 38.3536 -115.4306 97° East 466 536 33,000  Level Salt Lake Center
Mon 04:56:13 PM 38.3389 -115.2617 96° East 468 539 33,000  Level Salt Lake Center
Mon 04:57:14 PM 38.3231 -115.1019 97° East 456 525 33,000  Level Salt Lake Center
Mon 04:58:16 PM 38.3069 -114.9394 97° East 460 529 33,000  Level Salt Lake Center
Mon 04:59:17 PM 38.2889 -114.7750 98° East 467 537 33,000  Level Salt Lake Center
Mon 05:00:19 PM 38.2728 -114.6114 97° East 467 537 33,000  Level Salt Lake Center
Mon 05:01:20 PM 38.2564 -114.4517 97° East 457 526 33,000  Level Salt Lake Center
Mon 05:02:22 PM 38.2253 -114.2947 104° East 457 526 33,000  Level Salt Lake Center
Mon 05:03:23 PM 38.1828 -114.1358 109° East 470 541 33,000  Level Salt Lake Center
Mon 05:04:25 PM 38.1425 -113.9775 108° East 471 542 33,000  Level Salt Lake Center
Mon 05:05:26 PM 38.0936 -113.7931 109° East 464 534 33,000  Level Salt Lake Center
Mon 05:06:28 PM 38.0539 -113.6497 109° East 471 542 33,000  Level Salt Lake Center
Mon 05:07:30 PM 38.0142 -113.4964 108° East 461 531 33,000  Level Salt Lake Center
Mon 05:08:31 PM 37.9728 -113.3414 109° East 463 533 33,000  Level Salt Lake Center
Mon 05:09:33 PM 37.9314 -113.1867 109° East 463 533 33,000  Level Salt Lake Center
Mon 05:10:34 PM 37.8817 -113.0017 109° East 460 529 33,000  Level Salt Lake Center
Mon 05:11:36 PM 37.8400 -112.8481 109° East 458 527 33,000  Level Salt Lake Center
Mon 05:12:38 PM 37.7986 -112.6939 109° East 457 526 33,000  Level Salt Lake Center
Mon 05:13:39 PM 37.7558 -112.5411 109° East 456 525 33,000  Level Salt Lake Center
Mon 05:14:41 PM 37.7128 -112.3883 110° East 458 527 33,000  Level Salt Lake Center
Mon 05:15:42 PM 37.6742 -112.2372 108° East 455 524 33,000  Level Salt Lake Center
Mon 05:16:44 PM 37.6453 -112.0811 103° East 456 525 33,000  Level Salt Lake Center
Mon 05:17:46 PM 37.6122 -111.9300 105° East 450 518 33,000  Level Salt Lake Center
Mon 05:18:20 PM 37.5936 -111.8361 104° East 456 525 33,000  Level Denver Center
Mon 05:19:22 PM 37.5606 -111.6833 105° East 453 521 33,000  Level Denver Center
Mon 05:20:23 PM 37.5364 -111.5608 104° East 452 520 33,000  Level Denver Center
Mon 05:21:25 PM 37.4964 -111.3756 105° East 457 526 33,000  Level Denver Center
Mon 05:22:27 PM 37.4572 -111.1939 105° East 449 517 33,000  Level Denver Center
Mon 05:23:29 PM 37.4244 -111.0400 105° East 454 522 33,000  Level Denver Center
Mon 05:24:31 PM 37.3908 -110.8847 105° East 460 529 33,000  Level Denver Center
Mon 05:25:33 PM 37.3575 -110.7300 105° East 460 529 33,000  Level Denver Center
Mon 05:26:35 PM 37.3236 -110.5775 106° East 454 522 33,000  Level Denver Center
Mon 05:27:36 PM 37.2908 -110.4242 105° East 455 524 33,000  Level Denver Center
Mon 05:28:38 PM 37.2486 -110.2428 106° East 452 520 33,000  Level Denver Center
Mon 05:29:40 PM 37.2181 -110.1094 106° East 454 522 33,000  Level Denver Center
Mon 05:30:42 PM 37.1814 -109.9383 105° East 455 524 33,000  Level Denver Center
Mon 05:31:44 PM 37.1483 -109.7972 106° East 446 513 33,000  Level Denver Center
Mon 05:32:46 PM 37.1097 -109.6247 106° East 453 521 33,000  Level Denver Center
Mon 05:34:00 PM 37.0761 -109.4806 106° East 453 521 33,000  Level Denver Center
Mon 05:35:02 PM 37.0306 -109.2847 106° East 458 527 33,000  Level Denver Center
Mon 05:36:04 PM 36.9961 -109.1358 106° East 463 533 33,000  Level Denver Center
Mon 05:37:06 PM 36.9558 -108.9633 106° East 464 534 33,000  Level Denver Center
Mon 05:38:08 PM 36.9211 -108.8144 106° East 465 535 33,000  Level Denver Center
Mon 05:39:10 PM 36.8794 -108.6417 107° East 464 534 33,000  Level Denver Center
Mon 05:40:12 PM 36.8447 -108.4961 107° East 459 528 33,000  Level Denver Center
Mon 05:41:14 PM 36.8031 -108.3233 107° East 464 534 33,000  Level Denver Center
Mon 05:42:15 PM 36.7678 -108.1786 107° East 456 525 33,000  Level Denver Center
Mon 05:43:17 PM 36.7336 -108.0333 106° East 455 524 33,000  Level Denver Center
Mon 05:44:32 PM 36.6933 -107.8369 104° East 456 525 33,000  Level Denver Center
Mon 05:45:34 PM 36.6578 -107.6653 104° East 456 525 33,000  Level Denver Center
Mon 05:46:35 PM 36.6258 -107.5175 105° East 459 528 33,000  Level Denver Center
Mon 05:47:37 PM 36.5892 -107.3458 105° East 460 529 33,000  Level Denver Center
Mon 05:48:39 PM 36.5575 -107.1992 105° East 458 527 33,000  Level Denver Center
Mon 05:49:41 PM 36.5181 -107.0547 109° East 461 531 33,000  Level Denver Center
Mon 05:50:43 PM 36.4711 -106.8867 109° East 461 531 33,000  Level Denver Center
Mon 05:51:57 PM 36.4325 -106.7408 108° East 464 534 33,000  Level Denver Center
Mon 05:52:59 PM 36.3797 -106.5500 109° East 457 526 33,000  Level Denver Center
Mon 05:54:01 PM 36.3394 -106.4058 109° East 459 528 33,000  Level Denver Center
Mon 05:55:03 PM 36.2964 -106.2533 109° East 465 535 33,000  Level Denver Center
Mon 05:56:05 PM 36.2558 -106.1056 109° East 453 521 33,000  Level Denver Center
Mon 05:57:08 PM 36.2047 -105.9239 109° East 462 532 33,000  Level Albuquerque Center
Mon 05:58:10 PM 36.1597 -105.7728 110° East 466 536 33,000  Level Albuquerque Center
Mon 05:59:12 PM 36.1178 -105.6239 109° East 461 531 33,000  Level Albuquerque Center
Mon 06:00:13 PM 36.0678 -105.4578 110° East 463 533 33,000  Level Albuquerque Center
Mon 06:01:15 PM 36.0244 -105.3053 109° East 466 536 33,000  Level Albuquerque Center
Mon 06:02:17 PM 35.9800 -105.1531 110° East 467 537 33,000  Level Albuquerque Center
Mon 06:03:19 PM 35.9356 -105.0006 110° East 467 537 33,000  Level Albuquerque Center
Mon 06:04:21 PM 35.8894 -104.8506 111° Southeast 465 535 33,000  Level Albuquerque Center
Mon 06:05:23 PM 35.8442 -104.7011 110° East 463 533 33,000  Level Albuquerque Center
Mon 06:06:24 PM 35.7997 -104.5508 110° East 462 532 33,000  Level Albuquerque Center
Mon 06:07:26 PM 35.7542 -104.4006 110° East 463 533 33,000  Level Albuquerque Center
Mon 06:08:28 PM 35.7019 -104.2258 110° East 460 529 33,000  Level Albuquerque Center
Mon 06:09:30 PM 35.6564 -104.0761 110° East 460 529 33,000  Level Albuquerque Center
Mon 06:10:32 PM 35.6094 -103.9239 111° Southeast 466 536 33,000  Level Albuquerque Center
Mon 06:11:33 PM 35.5644 -103.7731 110° East 465 535 33,000  Level Albuquerque Center
Mon 06:12:35 PM 35.5175 -103.6219 111° Southeast 466 536 33,000  Level Albuquerque Center
Mon 06:13:37 PM 35.4703 -103.4686 111° Southeast 471 542 33,000  Level Albuquerque Center
Mon 06:14:39 PM 35.4233 -103.3192 111° Southeast 467 537 33,000  Level Albuquerque Center
Mon 06:15:40 PM 35.3753 -103.1689 111° Southeast 469 540 33,000  Level Albuquerque Center
Mon 06:16:42 PM 35.3275 -103.0172 111° Southeast 472 543 33,000 145 Level Albuquerque Center
Mon 06:17:44 PM 35.2808 -102.8717 111° Southeast 469 540 33,300 581 Climbing Albuquerque Center
Mon 06:18:46 PM 35.2336 -102.7236 111° Southeast 469 540 34,200 829 Climbing Albuquerque Center
Mon 06:19:47 PM 35.1775 -102.5467 111° Southeast 469 540 35,000 390 Climbing Albuquerque Center
Mon 06:20:49 PM 35.1297 -102.4017 112° Southeast 464 534 35,000  Level Albuquerque Center
Mon 06:21:51 PM 35.0825 -102.2547 111° Southeast 466 536 35,000  Level Albuquerque Center
Mon 06:22:53 PM 35.0356 -102.1083 111° Southeast 467 537 35,000  Level Albuquerque Center
Mon 06:23:54 PM 34.9872 -101.9639 112° Southeast 465 535 35,000  Level Albuquerque Center
Mon 06:24:56 PM 34.9308 -101.7914 112° Southeast 463 533 35,000  Level Albuquerque Center
Mon 06:25:58 PM 34.8839 -101.6469 112° Southeast 464 534 35,000  Level Albuquerque Center
Mon 06:26:59 PM 34.8361 -101.5019 112° Southeast 466 536 35,000  Level Albuquerque Center
Mon 06:28:01 PM 34.7878 -101.3572 112° Southeast 465 535 35,000  Level Albuquerque Center
Mon 06:29:03 PM 34.7400 -101.2133 112° Southeast 464 534 35,000  Level Albuquerque Center
Mon 06:30:05 PM 34.6928 -101.0694 112° Southeast 461 531 35,000  Level Albuquerque Center
Mon 06:31:06 PM 34.6333 -100.8978 113° Southeast 461 531 35,000  Level Albuquerque Center
Mon 06:32:08 PM 34.5853 -100.7539 112° Southeast 461 531 35,000  Level Albuquerque Center
Mon 06:33:10 PM 34.5361 -100.6108 113° Southeast 462 532 35,000  Level Albuquerque Center
Mon 06:34:11 PM 34.4867 -100.4681 113° Southeast 460 529 35,000  Level Albuquerque Center
Mon 06:35:13 PM 34.4378 -100.3256 113° Southeast 460 529 35,000  Level Albuquerque Center
Mon 06:36:15 PM 34.3892 -100.1842 113° Southeast 458 527 35,000  Level Albuquerque Center
Mon 06:37:16 PM 34.3342 -100.0300 113° Southeast 454 522 35,000  Level Albuquerque Center
Mon 06:38:18 PM 34.2844 -99.8894 113° Southeast 454 522 35,000  Level Fort Worth Center
Mon 06:39:18 PM 34.2350 -99.7497 113° Southeast 454 522 35,000  Level Fort Worth Center
Mon 06:40:18 PM 34.1875 -99.6078 112° Southeast 454 522 35,000  Level Fort Worth Center
Mon 06:41:18 PM 34.1356 -99.4686 114° Southeast 454 522 35,000 -650 Level Fort Worth Center
Mon 06:42:18 PM 34.0897 -99.3294 112° Southeast 449 517 33,700 -1,550 Descending Fort Worth Center
Mon 06:43:18 PM 34.0375 -99.1881 114° Southeast 449 517 31,900 -1,750 Descending Fort Worth Center
Mon 06:44:18 PM 33.9853 -99.0467 114° Southeast 449 517 30,200 -1,850 Descending Fort Worth Center
Mon 06:45:18 PM 33.9350 -98.9031 113° Southeast 454 522 28,200 -2,150 Descending Fort Worth Center
Mon 06:46:18 PM 33.8842 -98.7644 114° Southeast 459 528 25,900 -2,200 Descending Fort Worth Center
Mon 06:47:18 PM 33.8314 -98.6286 115° Southeast 454 522 23,800 -1,900 Descending Fort Worth Center
Mon 06:48:18 PM 33.7719 -98.5006 119° Southeast 442 509 22,100 -1,750 Descending Fort Worth Center
Mon 06:49:18 PM 33.7167 -98.3775 118° Southeast 421 484 20,300 -1,750 Descending Fort Worth Center
Mon 06:50:18 PM 33.6611 -98.2594 119° Southeast 414 476 18,600 -1,750 Descending Fort Worth Center
Mon 06:51:18 PM 33.6119 -98.1442 117° Southeast 409 471 16,800 -1,750 Descending Fort Worth Center
Mon 06:52:18 PM 33.5583 -98.0267 119° Southeast 398 458 15,100 -1,650 Descending Fort Worth Center
Mon 06:53:18 PM 33.5025 -97.9067 119° Southeast 388 447 13,500 -1,450 Descending Fort Worth Center
Mon 06:54:18 PM 33.4589 -97.8119 119° Southeast 369 425 12,200 -1,350 Descending Fort Worth Center
Mon 06:55:18 PM 33.4092 -97.7022 118° Southeast 349 402 10,800 -1,250 Descending Fort Worth Center
Mon 06:56:18 PM 33.3675 -97.6272 124° Southeast 316 364 9,700 -1,200 Descending Fort Worth Center
Mon 06:57:18 PM 33.3133 -97.5600 134° Southeast 287 330 8,400 -1,350 Descending Fort Worth Center
Mon 06:58:18 PM 33.2592 -97.4881 132° Southeast 267 307 7,000 -1,300 Descending Fort Worth Center
Mon 06:59:18 PM 33.2133 -97.4308 134° Southeast 262 302 5,800 -1,000 Descending Fort Worth Center
Mon 07:00:18 PM 33.1589 -97.3639 134° Southeast 257 296 5,000 -550 Descending Fort Worth Center
Mon 07:01:18 PM 33.1150 -97.3092 134° Southeast 250 288 4,700 -650 Descending Fort Worth Center
Mon 07:02:18 PM 33.0608 -97.2425 134° Southeast 250 288 3,700 -1,000 Descending Fort Worth Center

Login

Don't have an account? Register now (free) for customized features, flight alerts, and more!